Time;durP1;ratioP1;P1;durP2;ratioP2;P2;SDS_P1;SDS_P2;PMS_P1;PMS_P2;Temp;Humidity;BMP_temperature;BMP_pressure;BME280_temperature;BME280_humidity;BME280_pressure;Samples;Min_cycle;Max_cycle;Signal;HPM_P1;HPM_P2
2021/08/09 00:04:25;;;;;;;3.53;1.40;;;14.60;99.90;;;;;;12529769;28;20095;-84
2021/08/09 00:10:28;;;;;;;4.47;1.50;;;14.50;99.90;;;;;;12522591;28;20120;-83
2021/08/09 00:16:29;;;;;;;4.63;1.50;;;14.40;99.90;;;;;;12546508;28;20049;-85
2021/08/09 00:22:31;;;;;;;3.65;1.58;;;14.40;99.90;;;;;;12532798;28;20041;-85
2021/08/09 00:28:34;;;;;;;4.68;1.40;;;14.50;99.90;;;;;;12534302;28;20053;-84
2021/08/09 00:34:35;;;;;;;4.30;1.48;;;14.50;99.90;;;;;;12539194;28;20040;-85
2021/08/09 00:40:37;;;;;;;5.22;1.45;;;14.40;99.90;;;;;;12531635;28;20052;-84
2021/08/09 00:46:39;;;;;;;3.58;1.50;;;14.50;99.90;;;;;;12534992;28;20044;-84
2021/08/09 00:52:41;;;;;;;3.25;1.38;;;14.40;99.90;;;;;;12536500;28;20045;-85
2021/08/09 00:58:43;;;;;;;5.05;1.50;;;14.50;99.90;;;;;;12539490;28;20485;-85
2021/08/09 01:04:46;;;;;;;4.45;1.60;;;14.30;99.90;;;;;;12518975;28;20513;-84
2021/08/09 01:11:29;;;;;;;3.65;1.50;;;14.40;99.90;;;;;;12545920;28;20108;-86
2021/08/09 01:17:41;;;;;;;6.40;1.80;;;14.40;99.90;;;;;;12538461;28;20103;-84
2021/08/09 01:23:55;;;;;;;3.08;1.60;;;14.40;99.90;;;;;;12526854;28;20044;-85
2021/08/09 01:30:03;;;;;;;4.90;1.90;;;14.40;99.90;;;;;;12528970;28;20194;-84
2021/08/09 01:36:06;;;;;;;4.18;1.73;;;14.40;99.90;;;;;;12536218;28;20819;-84
2021/08/09 01:42:09;;;;;;;8.32;1.70;;;14.40;99.90;;;;;;12521310;28;20098;-84
2021/08/09 01:48:11;;;;;;;2.97;1.33;;;14.40;99.90;;;;;;12526226;28;20056;-85
2021/08/09 01:54:13;;;;;;;5.25;1.70;;;14.40;99.90;;;;;;12523470;28;20079;-85
2021/08/09 02:00:17;;;;;;;4.30;1.50;;;14.40;99.90;;;;;;12527034;28;20094;-84
2021/08/09 02:06:19;;;;;;;5.70;1.70;;;14.40;99.90;;;;;;12528962;28;20045;-85
2021/08/09 02:12:21;;;;;;;4.50;1.40;;;14.40;99.90;;;;;;12528929;28;20223;-84
2021/08/09 02:18:47;;;;;;;4.47;1.90;;;14.40;99.90;;;;;;12517572;28;20044;-84
2021/08/09 02:24:58;;;;;;;5.07;1.77;;;14.30;99.90;;;;;;12521572;28;20695;-85
2021/08/09 02:31:04;;;;;;;5.32;1.85;;;14.30;99.90;;;;;;12533503;28;20045;-85
2021/08/09 02:37:08;;;;;;;2.60;1.38;;;14.30;99.90;;;;;;12525126;28;20056;-84
2021/08/09 02:43:11;;;;;;;6.37;1.77;;;14.30;99.90;;;;;;12529978;28;20052;-85
2021/08/09 02:49:15;;;;;;;3.88;1.85;;;14.20;99.90;;;;;;12529949;28;20045;-83
2021/08/09 02:55:20;;;;;;;3.97;1.92;;;14.20;99.90;;;;;;12521437;28;20048;-84
2021/08/09 03:01:26;;;;;;;3.45;1.63;;;14.10;99.90;;;;;;12526967;28;20141;-85
2021/08/09 03:07:29;;;;;;;8.80;1.88;;;14.10;99.90;;;;;;12528892;28;20176;-84
2021/08/09 03:13:31;;;;;;;5.25;1.83;;;14.10;99.90;;;;;;12528653;28;20053;-85
2021/08/09 03:19:33;;;;;;;3.78;1.70;;;14.00;99.90;;;;;;12521645;28;20040;-85
2021/08/09 03:25:36;;;;;;;4.85;1.90;;;14.00;99.90;;;;;;12520822;28;20484;-85
2021/08/09 03:31:38;;;;;;;3.00;1.63;;;14.00;99.90;;;;;;12523395;28;21966;-84
2021/08/09 03:37:40;;;;;;;7.45;2.20;;;14.00;99.90;;;;;;12531331;28;20397;-85
2021/08/09 03:43:42;;;;;;;5.88;2.00;;;14.00;99.90;;;;;;12530598;28;20045;-84
2021/08/09 03:49:43;;;;;;;4.63;1.73;;;14.00;99.90;;;;;;12530748;28;20048;-84
2021/08/09 03:55:45;;;;;;;9.13;2.38;;;14.00;99.90;;;;;;12543049;28;20246;-85
2021/08/09 04:01:49;;;;;;;5.82;2.00;;;14.10;99.90;;;;;;12535369;28;20049;-85
2021/08/09 04:07:51;;;;;;;3.87;1.77;;;14.20;99.90;;;;;;12522743;28;20092;-85
2021/08/09 04:13:53;;;;;;;3.92;1.85;;;14.30;99.90;;;;;;12534529;28;20037;-84
2021/08/09 04:19:54;;;;;;;7.95;2.00;;;14.30;99.90;;;;;;12537963;28;20048;-84
2021/08/09 04:25:56;;;;;;;6.30;2.00;;;14.30;99.90;;;;;;12532637;28;20052;-85
2021/08/09 04:31:58;;;;;;;5.22;1.70;;;14.30;99.90;;;;;;12535806;28;20090;-84
2021/08/09 04:38:00;;;;;;;4.22;1.63;;;14.40;99.90;;;;;;12535692;28;20446;-85
2021/08/09 04:44:02;;;;;;;5.20;2.28;;;14.40;99.90;;;;;;12534841;28;20071;-84
2021/08/09 04:50:04;;;;;;;4.60;1.67;;;14.40;99.90;;;;;;12546984;28;20104;-84
2021/08/09 04:56:06;;;;;;;6.13;1.77;;;14.40;99.90;;;;;;12560769;28;20060;-84
2021/08/09 05:02:08;;;;;;;4.45;1.85;;;14.50;99.90;;;;;;12522886;28;20049;-85
2021/08/09 05:08:10;;;;;;;6.57;1.90;;;14.50;99.90;;;;;;12532865;28;20571;-87
2021/08/09 05:14:12;;;;;;;4.55;1.80;;;14.40;99.90;;;;;;12525765;28;20459;-85
2021/08/09 05:20:13;;;;;;;5.13;1.80;;;14.60;99.90;;;;;;12521939;28;20041;-85
2021/08/09 05:26:16;;;;;;;5.13;1.88;;;14.60;99.90;;;;;;12527404;28;20049;-87
2021/08/09 05:32:18;;;;;;;4.35;2.00;;;14.60;99.90;;;;;;12520893;28;20386;-86
2021/08/09 05:38:20;;;;;;;4.03;1.92;;;14.70;99.90;;;;;;12522035;28;20525;-86
2021/08/09 05:44:22;;;;;;;6.45;1.73;;;14.70;99.90;;;;;;12526911;28;20095;-85
2021/08/09 05:50:23;;;;;;;5.75;2.00;;;14.70;99.90;;;;;;12520462;28;20056;-86
2021/08/09 05:56:25;;;;;;;7.88;1.90;;;14.90;99.90;;;;;;12509052;28;20044;-86
2021/08/09 06:02:27;;;;;;;5.82;2.00;;;15.00;99.90;;;;;;12517940;28;20052;-87
2021/08/09 06:08:29;;;;;;;5.55;1.80;;;15.00;99.90;;;;;;12528689;28;20092;-86
2021/08/09 06:14:31;;;;;;;10.23;2.13;;;15.10;99.90;;;;;;12526920;28;20554;-85
2021/08/09 06:20:33;;;;;;;6.90;1.45;;;15.20;99.90;;;;;;12518773;28;20072;-86
2021/08/09 06:26:35;;;;;;;7.82;2.10;;;15.40;99.90;;;;;;12513596;28;20061;-86
2021/08/09 06:32:38;;;;;;;5.10;1.60;;;15.40;99.90;;;;;;12517622;28;20045;-87
2021/08/09 06:38:40;;;;;;;4.20;1.65;;;15.50;99.90;;;;;;12527344;28;20048;-86
2021/08/09 06:44:42;;;;;;;2.83;1.40;;;15.50;99.90;;;;;;12521618;28;21123;-86
2021/08/09 06:50:44;;;;;;;4.88;1.63;;;15.70;99.90;;;;;;12524525;28;20091;-87
2021/08/09 06:56:46;;;;;;;5.28;1.73;;;15.90;99.90;;;;;;12526334;28;20143;-87
2021/08/09 07:02:49;;;;;;;5.00;1.60;;;16.00;99.90;;;;;;12525253;28;20362;-86
2021/08/09 07:08:52;;;;;;;6.28;1.92;;;16.00;99.90;;;;;;12523549;28;20322;-87
2021/08/09 07:14:54;;;;;;;7.78;2.08;;;16.00;99.90;;;;;;12523029;28;20068;-87
2021/08/09 07:20:56;;;;;;;6.68;1.60;;;16.20;99.90;;;;;;12518459;28;20040;-84
2021/08/09 07:26:58;;;;;;;5.65;1.63;;;16.60;99.90;;;;;;12539724;28;20056;-86
2021/08/09 07:32:59;;;;;;;5.40;1.52;;;16.70;99.90;;;;;;12526020;28;20091;-87
2021/08/09 07:39:01;;;;;;;4.45;1.40;;;16.70;99.90;;;;;;12539305;28;20094;-86
2021/08/09 07:45:04;;;;;;;3.97;1.50;;;16.70;99.90;;;;;;12542967;28;20417;-87
2021/08/09 07:51:06;;;;;;;6.88;1.55;;;16.80;99.90;;;;;;12535493;28;20040;-86
2021/08/09 07:57:08;;;;;;;5.35;1.40;;;17.10;99.90;;;;;;12535914;28;20049;-87
2021/08/09 08:03:10;;;;;;;4.95;1.35;;;17.20;99.90;;;;;;12537806;28;20045;-86
2021/08/09 08:09:11;;;;;;;7.50;1.70;;;17.00;99.90;;;;;;12531483;28;20791;-86
2021/08/09 08:15:13;;;;;;;4.65;1.50;;;16.90;99.90;;;;;;12543048;28;20082;-87
2021/08/09 08:21:15;;;;;;;8.25;1.63;;;16.80;99.90;;;;;;12537857;28;20041;-87
2021/08/09 08:27:17;;;;;;;5.32;1.77;;;16.70;99.90;;;;;;12533799;28;20094;-86
2021/08/09 08:33:19;;;;;;;5.25;1.48;;;16.70;99.90;;;;;;12538154;28;20049;-87
2021/08/09 08:39:20;;;;;;;6.15;1.70;;;16.80;99.90;;;;;;12543711;28;20143;-87
2021/08/09 08:45:24;;;;;;;4.05;1.42;;;16.90;99.90;;;;;;12549291;28;20128;-88
2021/08/09 08:51:25;;;;;;;4.67;1.80;;;17.00;99.90;;;;;;12518135;28;20583;-85
2021/08/09 08:57:27;;;;;;;8.52;1.77;;;17.10;99.90;;;;;;12523794;28;20057;-87
2021/08/09 09:03:29;;;;;;;8.05;1.40;;;17.30;99.90;;;;;;12544005;28;20052;-87
2021/08/09 09:09:39;;;;;;;5.65;1.38;;;17.40;99.90;;;;;;12521903;28;20057;-87
2021/08/09 09:15:57;;;;;;;5.82;1.35;;;17.60;99.90;;;;;;12525706;28;20041;-87
2021/08/09 09:22:00;;;;;;;4.07;1.35;;;17.80;99.90;;;;;;12529068;28;20048;-86
2021/08/09 09:28:24;;;;;;;5.22;1.30;;;17.90;99.90;;;;;;12528681;28;20097;-88
2021/08/09 09:34:25;;;;;;;5.43;1.50;;;18.10;99.90;;;;;;12526485;28;20045;-86
2021/08/09 09:40:37;;;;;;;7.15;1.50;;;18.10;99.90;;;;;;12526097;28;20057;-87
2021/08/09 09:46:44;;;;;;;5.70;1.60;;;18.00;99.90;;;;;;12521437;28;20049;-84
2021/08/09 09:52:47;;;;;;;6.90;1.58;;;18.00;99.90;;;;;;12516358;28;20869;-86
2021/08/09 09:58:50;;;;;;;5.78;1.50;;;17.80;99.90;;;;;;12530359;28;20093;-88
2021/08/09 10:04:52;;;;;;;7.07;1.70;;;17.90;99.90;;;;;;12523316;28;20123;-88
2021/08/09 10:10:56;;;;;;;6.03;1.40;;;18.10;99.90;;;;;;12523986;28;20033;-87
2021/08/09 10:16:59;;;;;;;4.82;2.13;;;18.40;99.90;;;;;;12528948;28;20049;-85
2021/08/09 10:23:04;;;;;;;6.82;1.85;;;18.50;99.90;;;;;;12517181;28;20041;-86
2021/08/09 10:29:11;;;;;;;3.90;1.15;;;18.60;99.90;;;;;;12517414;28;20094;-86
2021/08/09 10:35:43;;;;;;;6.22;1.50;;;19.00;99.90;;;;;;12521570;28;20052;-89
2021/08/09 10:41:52;;;;;;;4.63;1.40;;;19.50;99.90;;;;;;12521152;28;20107;-87
2021/08/09 10:47:56;;;;;;;3.92;1.40;;;20.50;99.90;;;;;;12519757;28;20045;-86
2021/08/09 10:53:58;;;;;;;2.85;1.10;;;20.30;99.90;;;;;;12519184;28;20604;-87
2021/08/09 11:00:00;;;;;;;5.20;1.20;;;20.20;99.90;;;;;;12523414;28;20543;-87
2021/08/09 11:06:56;;;;;;;4.15;1.45;;;19.80;99.90;;;;;;12522681;28;20057;-88
2021/08/09 11:13:00;;;;;;;4.35;1.40;;;19.90;99.90;;;;;;12460316;28;20037;-87
2021/08/09 11:19:01;;;;;;;6.00;1.17;;;20.50;99.90;;;;;;12521701;28;20127;-87
2021/08/09 11:25:04;;;;;;;5.30;1.20;;;21.40;99.90;;;;;;12524611;28;20049;-88
2021/08/09 11:31:06;;;;;;;3.38;1.33;;;21.30;99.90;;;;;;12515208;28;20037;-87
2021/08/09 11:37:07;;;;;;;3.17;1.17;;;20.70;99.90;;;;;;12524926;28;20408;-87
2021/08/09 11:43:11;;;;;;;3.15;1.05;;;20.50;99.90;;;;;;12520105;28;20848;-87
2021/08/09 11:49:13;;;;;;;1.88;0.93;;;20.30;99.90;;;;;;12522538;28;20067;-88
2021/08/09 11:55:22;;;;;;;4.75;1.48;;;20.00;99.90;;;;;;12522004;28;20091;-87
2021/08/09 12:01:30;;;;;;;3.17;1.00;;;20.00;99.90;;;;;;12520155;28;20320;-87
2021/08/09 12:07:32;;;;;;;3.95;1.08;;;19.70;99.90;;;;;;12536411;28;20053;-86
2021/08/09 12:13:34;;;;;;;4.82;1.00;;;19.50;99.90;;;;;;12560622;28;20045;-87
2021/08/09 12:19:41;;;;;;;6.35;1.40;;;19.40;99.90;;;;;;12557668;28;20049;-87
2021/08/09 12:25:42;;;;;;;6.50;1.20;;;19.10;99.90;;;;;;12532360;28;20049;-86
2021/08/09 12:31:45;;;;;;;2.95;1.13;;;18.80;99.90;;;;;;12532446;28;20075;-88
2021/08/09 12:37:55;;;;;;;2.63;0.90;;;18.60;99.90;;;;;;12525608;28;20079;-86
2021/08/09 12:44:02;;;;;;;5.18;1.98;;;18.80;99.90;;;;;;12524036;28;20044;-87
2021/08/09 12:50:04;;;;;;;6.35;1.38;;;19.00;99.90;;;;;;12527423;28;20053;-87
2021/08/09 12:56:06;;;;;;;6.40;1.20;;;19.60;99.90;;;;;;12528611;28;20668;-87
2021/08/09 13:02:08;;;;;;;3.15;1.00;;;20.10;99.90;;;;;;12545236;28;20496;-86
2021/08/09 13:08:10;;;;;;;2.75;0.82;;;20.20;99.90;;;;;;12533183;28;20072;-86
2021/08/09 13:14:12;;;;;;;6.38;1.10;;;20.00;99.90;;;;;;12530190;28;20049;-86
2021/08/09 13:20:14;;;;;;;4.43;1.08;;;20.00;99.90;;;;;;12519706;28;20050;-87
2021/08/09 13:26:16;;;;;;;4.05;1.00;;;20.00;99.90;;;;;;12523148;28;20041;-88
2021/08/09 13:32:17;;;;;;;3.28;1.20;;;21.10;99.90;;;;;;12514375;28;20106;-88
2021/08/09 13:38:19;;;;;;;2.33;0.80;;;22.00;99.90;;;;;;12523347;28;21690;-88
2021/08/09 13:44:21;;;;;;;6.18;1.20;;;21.80;99.90;;;;;;12514608;28;20041;-89
2021/08/09 13:50:23;;;;;;;6.90;1.20;;;21.80;99.90;;;;;;12517391;28;20079;-88
2021/08/09 13:56:24;;;;;;;4.53;1.08;;;21.20;99.90;;;;;;12516737;28;20103;-87
2021/08/09 14:02:27;;;;;;;3.67;0.90;;;20.80;99.90;;;;;;12510273;28;20459;-88
2021/08/09 14:08:29;;;;;;;2.55;0.95;;;21.30;99.90;;;;;;12510953;28;20102;-88
2021/08/09 14:14:30;;;;;;;3.95;1.00;;;21.80;99.90;;;;;;12496355;28;20041;-87
2021/08/09 14:20:32;;;;;;;4.35;0.90;;;21.20;99.90;;;;;;12521444;28;20149;-86
2021/08/09 14:26:35;;;;;;;4.55;1.02;;;20.90;99.90;;;;;;12516543;28;20060;-88
2021/08/09 14:32:37;;;;;;;4.05;1.08;;;20.80;99.90;;;;;;12514411;28;20444;-86
2021/08/09 14:38:40;;;;;;;5.43;0.90;;;21.60;99.90;;;;;;12519623;28;20463;-87
2021/08/09 14:44:42;;;;;;;6.07;1.17;;;22.20;99.90;;;;;;12525678;28;20040;-87
2021/08/09 14:50:44;;;;;;;3.10;1.02;;;21.40;99.90;;;;;;12520905;28;20103;-88
2021/08/09 14:56:46;;;;;;;4.38;0.85;;;21.30;99.90;;;;;;12525143;28;20037;-88
2021/08/09 15:02:48;;;;;;;4.50;1.00;;;21.00;99.90;;;;;;12523853;28;20055;-89
2021/08/09 15:08:50;;;;;;;4.25;0.93;;;20.90;99.90;;;;;;12518928;28;20041;-86
2021/08/09 15:14:52;;;;;;;2.90;1.15;;;20.50;99.90;;;;;;12525607;28;20104;-86
2021/08/09 15:20:54;;;;;;;5.53;1.17;;;20.30;99.90;;;;;;12512788;28;20054;-87
2021/08/09 15:26:57;;;;;;;4.78;1.35;;;20.40;99.90;;;;;;12509911;28;20072;-88
2021/08/09 15:33:01;;;;;;;3.55;1.10;;;20.50;99.90;;;;;;12534919;28;20077;-88
2021/08/09 15:39:03;;;;;;;3.08;1.10;;;20.40;99.90;;;;;;12519280;28;20053;-88
2021/08/09 15:45:06;;;;;;;4.65;1.02;;;20.50;99.90;;;;;;12516700;28;20053;-88
2021/08/09 15:51:09;;;;;;;6.40;1.00;;;21.40;99.90;;;;;;12513503;28;20062;-88
2021/08/09 15:57:13;;;;;;;4.20;1.38;;;22.20;99.90;;;;;;12532468;28;20044;-88
2021/08/09 16:03:15;;;;;;;6.40;1.23;;;22.40;99.90;;;;;;12518025;28;20059;-88
2021/08/09 16:09:21;;;;;;;2.53;0.95;;;21.50;99.90;;;;;;12527592;28;20057;-86
2021/08/09 16:15:24;;;;;;;7.40;1.30;;;21.50;99.90;;;;;;12530321;28;20517;-89
2021/08/09 16:21:26;;;;;;;4.15;1.30;;;22.00;99.90;;;;;;12532359;28;21029;-87
2021/08/09 16:27:28;;;;;;;5.28;0.90;;;22.30;99.90;;;;;;12526900;28;20065;-87
2021/08/09 16:33:36;;;;;;;2.83;1.00;;;22.00;99.90;;;;;;12526290;28;20068;-89
2021/08/09 16:39:38;;;;;;;5.72;0.90;;;21.80;99.90;;;;;;12512626;28;20076;-88
2021/08/09 16:45:40;;;;;;;3.70;1.00;;;21.20;99.90;;;;;;12522657;28;20048;-88
2021/08/09 16:51:42;;;;;;;3.10;0.90;;;21.10;99.90;;;;;;12522012;28;20657;-88
2021/08/09 16:57:45;;;;;;;3.20;0.95;;;20.90;99.90;;;;;;12523256;28;20045;-88
2021/08/09 17:03:47;;;;;;;2.88;1.00;;;20.90;99.90;;;;;;12518057;28;20396;-88
2021/08/09 17:09:49;;;;;;;2.03;0.88;;;21.30;99.90;;;;;;12518105;28;20049;-88
2021/08/09 17:15:51;;;;;;;2.85;0.70;;;21.70;99.90;;;;;;12520225;28;20167;-87
2021/08/09 17:21:54;;;;;;;4.75;1.17;;;21.40;99.90;;;;;;12517199;28;20094;-88
2021/08/09 17:27:56;;;;;;;3.47;0.90;;;21.50;99.90;;;;;;12522366;28;20089;-87
2021/08/09 17:33:58;;;;;;;4.10;0.98;;;21.10;99.90;;;;;;12520822;28;20060;-87
2021/08/09 17:40:00;;;;;;;5.07;1.17;;;20.80;99.90;;;;;;12522297;28;20074;-87
2021/08/09 17:46:03;;;;;;;3.67;1.30;;;20.60;99.90;;;;;;12524368;28;20045;-87
2021/08/09 17:52:06;;;;;;;3.60;1.17;;;20.10;99.90;;;;;;12511649;28;20037;-87
2021/08/09 17:58:07;;;;;;;4.25;1.13;;;20.00;99.90;;;;;;12519947;28;20057;-87
2021/08/09 18:04:09;;;;;;;3.45;1.10;;;19.90;99.90;;;;;;12520334;28;20063;-88
2021/08/09 18:10:11;;;;;;;3.05;1.20;;;19.80;99.90;;;;;;12526319;28;20073;-87
2021/08/09 18:16:16;;;;;;;2.22;0.95;;;19.70;99.90;;;;;;12546978;28;20057;-87
2021/08/09 18:22:18;;;;;;;3.90;1.02;;;19.50;99.90;;;;;;12525097;28;20087;-88
2021/08/09 18:28:19;;;;;;;3.40;1.10;;;19.30;99.90;;;;;;12519857;28;20048;-87
2021/08/09 18:34:21;;;;;;;2.90;0.80;;;19.10;99.90;;;;;;12523320;28;20086;-87
2021/08/09 18:40:23;;;;;;;3.88;1.20;;;19.00;99.90;;;;;;12517219;28;20044;-87
2021/08/09 18:46:26;;;;;;;3.15;1.15;;;18.90;99.90;;;;;;12519719;28;20056;-88
2021/08/09 18:52:27;;;;;;;1.98;0.90;;;18.90;99.90;;;;;;12520555;28;20141;-88
2021/08/09 18:58:29;;;;;;;4.28;0.98;;;18.70;99.90;;;;;;12518450;28;20133;-87
2021/08/09 19:04:31;;;;;;;4.95;1.13;;;18.60;99.90;;;;;;12518036;28;20396;-88
2021/08/09 19:10:33;;;;;;;4.55;1.10;;;18.50;99.90;;;;;;12503632;28;20540;-87
2021/08/09 19:16:36;;;;;;;2.97;1.08;;;18.50;99.90;;;;;;12521408;28;20064;-88
2021/08/09 19:22:55;;;;;;;5.60;1.17;;;18.40;99.90;;;;;;12516285;28;20045;-86
2021/08/09 19:28:57;;;;;;;2.85;1.55;;;18.30;99.90;;;;;;12521636;28;20088;-85
2021/08/09 19:35:03;;;;;;;6.07;1.40;;;18.20;99.90;;;;;;12512476;28;20041;-85
2021/08/09 19:41:05;;;;;;;2.97;1.00;;;18.10;99.90;;;;;;12526457;28;20179;-85
2021/08/09 19:47:07;;;;;;;5.22;1.23;;;18.00;99.90;;;;;;12524083;28;20106;-86
2021/08/09 19:53:09;;;;;;;6.45;1.85;;;18.00;99.90;;;;;;12524355;28;20068;-87
2021/08/09 19:59:12;;;;;;;5.90;1.60;;;17.90;99.90;;;;;;12527387;28;20044;-85
2021/08/09 20:05:14;;;;;;;4.30;1.58;;;17.70;99.90;;;;;;12515524;28;20049;-85
2021/08/09 20:11:15;;;;;;;5.10;1.80;;;17.60;99.90;;;;;;12519475;28;20454;-85
2021/08/09 20:17:17;;;;;;;5.18;1.60;;;17.50;99.90;;;;;;12520309;28;20044;-85
2021/08/09 20:23:21;;;;;;;3.13;1.60;;;17.40;99.90;;;;;;12521112;28;20041;-85
2021/08/09 20:29:23;;;;;;;3.38;1.67;;;17.20;99.90;;;;;;12529121;28;20094;-84
2021/08/09 20:35:25;;;;;;;2.90;1.50;;;17.10;99.90;;;;;;12529883;28;20041;-86
2021/08/09 20:41:26;;;;;;;4.22;1.65;;;16.90;99.90;;;;;;12518844;28;20048;-84
2021/08/09 20:47:28;;;;;;;3.25;1.50;;;16.90;99.90;;;;;;12532650;28;20056;-84
2021/08/09 20:53:30;;;;;;;3.10;1.52;;;16.80;99.90;;;;;;12529067;28;20509;-85
2021/08/09 20:59:32;;;;;;;5.43;1.50;;;16.80;99.90;;;;;;12533709;28;20049;-85
2021/08/09 21:05:34;;;;;;;3.08;1.50;;;16.70;99.90;;;;;;12529289;28;20045;-85
2021/08/09 21:11:36;;;;;;;3.15;1.40;;;16.70;99.90;;;;;;12533303;28;20545;-85
2021/08/09 21:17:38;;;;;;;3.25;1.45;;;16.50;99.90;;;;;;12530278;28;20201;-85
2021/08/09 21:23:40;;;;;;;3.63;1.60;;;16.40;99.90;;;;;;12528517;28;20623;-85
2021/08/09 21:29:42;;;;;;;5.15;1.60;;;16.30;99.90;;;;;;12532147;28;20045;-85
2021/08/09 21:35:44;;;;;;;4.80;1.80;;;16.20;99.90;;;;;;12528610;28;20052;-85
2021/08/09 21:41:46;;;;;;;4.47;1.70;;;16.10;99.90;;;;;;12564852;28;20056;-85
2021/08/09 21:47:48;;;;;;;4.38;1.83;;;15.80;99.90;;;;;;12543266;28;20057;-85
2021/08/09 21:53:50;;;;;;;5.60;1.88;;;15.70;99.90;;;;;;12520413;28;20098;-85
2021/08/09 21:59:51;;;;;;;4.05;1.92;;;15.60;99.90;;;;;;12531484;28;20100;-84
2021/08/09 22:05:53;;;;;;;4.63;2.00;;;15.60;99.90;;;;;;12518363;28;20335;-85
2021/08/09 22:11:55;;;;;;;4.40;2.33;;;15.60;99.90;;;;;;12520049;28;20087;-84
2021/08/09 22:17:57;;;;;;;4.15;1.60;;;15.60;99.90;;;;;;12527005;28;20037;-85
2021/08/09 22:23:58;;;;;;;3.60;1.73;;;15.70;99.90;;;;;;12527159;28;20122;-85
2021/08/09 22:30:03;;;;;;;4.03;1.70;;;15.70;99.90;;;;;;12523466;28;20105;-84
2021/08/09 22:36:06;;;;;;;3.05;1.60;;;15.60;99.90;;;;;;12523100;28;20049;-86
2021/08/09 22:42:08;;;;;;;5.07;1.95;;;15.50;99.90;;;;;;12523012;28;20075;-85
2021/08/09 22:48:12;;;;;;;3.15;1.35;;;15.60;99.90;;;;;;12517447;28;20443;-85
2021/08/09 22:54:14;;;;;;;4.93;1.67;;;15.50;99.90;;;;;;12523967;28;20049;-85
2021/08/09 23:00:16;;;;;;;3.35;1.58;;;15.50;99.90;;;;;;12515925;28;20095;-85
2021/08/09 23:06:18;;;;;;;7.82;1.90;;;15.50;99.90;;;;;;12525396;28;20044;-85
2021/08/09 23:12:20;;;;;;;5.03;1.70;;;15.50;99.90;;;;;;12522655;28;20049;-84
2021/08/09 23:18:22;;;;;;;4.45;1.75;;;15.40;99.90;;;;;;12522865;28;20053;-84
2021/08/09 23:24:24;;;;;;;3.08;1.60;;;15.40;99.90;;;;;;12509926;28;20459;-85
2021/08/09 23:30:25;;;;;;;3.63;1.95;;;15.40;99.90;;;;;;12525110;28;20044;-85
2021/08/09 23:36:28;;;;;;;5.88;1.73;;;15.30;99.90;;;;;;12528120;28;20118;-85
2021/08/09 23:42:30;;;;;;;4.72;1.95;;;15.40;99.90;;;;;;12510979;28;20157;-84
2021/08/09 23:48:32;;;;;;;5.03;1.83;;;15.30;99.90;;;;;;12525159;28;20057;-84
2021/08/09 23:54:33;;;;;;;3.80;1.70;;;15.20;99.90;;;;;;12523269;28;20456;-86
